Time;durP1;ratioP1;P1;durP2;ratioP2;P2;SDS_P1;SDS_P2;PMS_P1;PMS_P2;Temp;Humidity;BMP_temperature;BMP_pressure;BME280_temperature;BME280_humidity;BME280_pressure;Samples;Min_cycle;Max_cycle;Signal;HPM_P1;HPM_P2
2022/06/29 00:03:29;;;;;;;4.57;1.83;;;24.90;29.80;;;;;;20923899;28;20049;-62
2022/06/29 00:13:31;;;;;;;4.18;1.58;;;24.60;30.00;;;;;;20923693;28;20060;-62
2022/06/29 00:23:32;;;;;;;6.88;2.10;;;24.50;30.20;;;;;;20922089;28;20102;-61
2022/06/29 00:33:35;;;;;;;3.47;1.70;;;24.20;30.60;;;;;;20920217;28;20139;-62
2022/06/29 00:43:43;;;;;;;5.20;1.95;;;24.00;31.10;;;;;;20921182;28;20048;-62
2022/06/29 00:53:48;;;;;;;4.22;1.95;;;23.90;31.40;;;;;;20919459;28;20049;-61
2022/06/29 01:03:50;;;;;;;3.17;2.00;;;23.80;31.60;;;;;;20918215;28;20397;-63
2022/06/29 01:13:52;;;;;;;3.75;1.77;;;23.80;31.80;;;;;;20918324;28;20052;-61
2022/06/29 01:23:56;;;;;;;1.90;1.30;;;;;;;;;;20899611;28;20053;-62
2022/06/29 01:34:01;;;;;;;6.93;1.70;;;;;;;;;;20917807;28;20056;-62
2022/06/29 01:44:04;;;;;;;4.93;1.95;;;;;;;;;;20915794;28;20484;-61
2022/06/29 01:54:07;;;;;;;3.03;1.80;;;;;;;;;;20915150;28;20060;-63
2022/06/29 02:04:10;;;;;;;4.20;1.63;;;;;;;;;;20914292;28;20060;-62
2022/06/29 02:14:13;;;;;;;2.65;1.30;;;23.50;32.10;;;;;;20912807;28;20045;-61
2022/06/29 02:24:15;;;;;;;3.03;1.70;;;22.90;32.60;;;;;;20914823;28;20045;-61
2022/06/29 02:44:39;;;;;;;2.38;1.30;;;22.10;34.10;;;;;;20915456;28;20059;-62
2022/06/29 02:54:41;;;;;;;4.88;1.52;;;22.10;34.30;;;;;;20911564;28;20481;-61
2022/06/29 03:04:43;;;;;;;2.45;1.23;;;;;;;;;;20911889;28;20049;-62
2022/06/29 03:14:45;;;;;;;3.45;1.65;;;;;;;;;;20910934;28;20059;-62
2022/06/29 03:24:47;;;;;;;4.07;1.15;;;;;;;;;;20918801;28;20130;-62
2022/06/29 03:34:50;;;;;;;2.85;0.98;;;;;;;;;;20926314;28;20111;-61
2022/06/29 03:44:52;;;;;;;4.25;1.30;;;;;;;;;;20924748;28;20083;-61
2022/06/29 03:54:54;;;;;;;3.50;1.42;;;;;;;;;;20924438;28;20045;-60
2022/06/29 04:04:56;;;;;;;7.47;3.03;;;;;;;;;;20922891;28;20051;-63
2022/06/29 04:14:58;;;;;;;5.82;1.77;;;23.10;33.00;;;;;;20923693;28;20548;-61
2022/06/29 04:25:00;;;;;;;4.28;1.80;;;;;;;;;;20921820;28;20478;-63
2022/06/29 04:35:02;;;;;;;2.40;1.60;;;;;;;;;;20921302;28;20405;-62
2022/06/29 04:45:05;;;;;;;5.05;1.67;;;23.10;33.60;;;;;;20920469;28;20049;-62
2022/06/29 04:55:08;;;;;;;4.55;1.60;;;22.40;33.80;;;;;;20921201;28;20048;-63
2022/06/29 05:05:10;;;;;;;7.85;2.20;;;22.20;33.50;;;;;;20919284;28;20051;-61
2022/06/29 05:15:12;;;;;;;3.90;1.67;;;;;;;;;;20917701;28;20072;-62
2022/06/29 05:25:14;;;;;;;5.78;2.08;;;22.10;34.90;;;;;;20917275;28;20075;-62
2022/06/29 05:35:16;;;;;;;3.00;1.65;;;;;;;;;;20918280;28;20053;-61
2022/06/29 05:45:18;;;;;;;6.57;1.90;;;;;;;;;;20915804;28;20128;-62
2022/06/29 05:55:20;;;;;;;5.35;2.30;;;;;;;;;;20914862;28;20081;-62
2022/06/29 06:05:22;;;;;;;7.22;2.40;;;;;;;;;;20914014;28;20390;-62
2022/06/29 06:15:24;;;;;;;13.35;2.72;;;22.20;35.40;;;;;;20913131;28;20052;-63
2022/06/29 06:25:26;;;;;;;11.00;3.00;;;21.50;35.80;;;;;;20914900;28;20049;-61
2022/06/29 06:35:28;;;;;;;17.45;3.10;;;23.00;32.30;;;;;;20912779;28;20041;-63
2022/06/29 06:45:31;;;;;;;18.25;2.72;;;22.30;33.50;;;;;;20912246;28;20390;-63
2022/06/29 06:55:33;;;;;;;11.93;2.80;;;;;;;;;;20914345;28;20482;-63
2022/06/29 07:05:35;;;;;;;10.07;2.90;;;24.30;30.70;;;;;;20926756;28;20106;-63
2022/06/29 07:15:36;;;;;;;3.38;2.13;;;;;;;;;;20930148;28;20489;-62
2022/06/29 07:25:39;;;;;;;6.90;1.90;;;;;;;;;;20928503;28;20132;-64
2022/06/29 07:35:40;;;;;;;10.40;1.63;;;26.10;28.50;;;;;;20930049;28;20052;-61
2022/06/29 07:45:43;;;;;;;4.70;1.17;;;25.80;28.80;;;;;;20927128;28;20651;-62
2022/06/29 07:55:44;;;;;;;5.50;1.27;;;26.60;27.40;;;;;;20926728;28;20409;-63
2022/06/29 08:05:46;;;;;;;2.50;1.25;;;26.90;26.80;;;;;;20926401;28;20055;-66
2022/06/29 08:15:48;;;;;;;9.15;1.95;;;27.20;30.20;;;;;;20923920;28;20068;-64
2022/06/29 08:25:50;;;;;;;6.03;2.17;;;27.50;27.60;;;;;;20920969;28;20053;-63
2022/06/29 08:35:52;;;;;;;10.23;1.88;;;27.80;26.70;;;;;;20922691;28;20120;-59
2022/06/29 08:45:54;;;;;;;10.07;1.85;;;27.90;26.40;;;;;;20922870;28;20049;-66
2022/06/29 08:55:59;;;;;;;6.05;1.77;;;27.90;26.70;;;;;;20924267;28;20128;-60
2022/06/29 09:06:03;;;;;;;12.50;2.17;;;27.90;26.00;;;;;;20920232;28;20153;-58
2022/06/29 09:16:09;;;;;;;7.40;1.92;;;28.30;26.40;;;;;;20918865;28;20071;-65
2022/06/29 09:26:11;;;;;;;7.57;2.53;;;;;;;;;;20918744;28;20067;-60
2022/06/29 09:36:18;;;;;;;7.90;2.55;;;28.80;26.30;;;;;;20916392;28;20052;-69
2022/06/29 09:46:22;;;;;;;16.60;3.35;;;29.30;25.90;;;;;;20915723;28;20159;-67
2022/06/29 09:56:28;;;;;;;8.75;1.83;;;29.20;25.80;;;;;;20915566;28;20481;-70
2022/06/29 10:06:31;;;;;;;2.35;1.20;;;29.50;24.90;;;;;;20914490;28;20055;-66
2022/06/29 10:16:57;;;;;;;6.40;1.58;;;30.20;23.80;;;;;;20913568;28;20045;-70
2022/06/29 10:27:06;;;;;;;3.65;1.13;;;29.60;24.70;;;;;;20918348;28;20057;-60
2022/06/29 10:37:15;;;;;;;3.70;1.35;;;29.60;24.80;;;;;;20921360;28;20049;-72
2022/06/29 10:47:21;;;;;;;5.78;1.23;;;29.40;25.40;;;;;;20912895;28;20049;-66
2022/06/29 10:57:24;;;;;;;2.92;1.40;;;29.40;24.90;;;;;;20911367;28;20438;-58
2022/06/29 11:17:47;;;;;;;5.15;1.42;;;;;;;;;;20911883;28;20070;-58
2022/06/29 11:27:49;;;;;;;6.70;1.60;;;31.10;23.40;;;;;;20909776;28;20053;-56
2022/06/29 11:37:53;;;;;;;1.75;1.25;;;31.00;23.50;;;;;;20910497;28;20481;-57
2022/06/29 11:47:55;;;;;;;2.58;1.40;;;;;;;;;;20921438;28;20048;-56
2022/06/29 11:57:58;;;;;;;2.45;1.40;;;;;;;;;;20924877;28;20049;-57
2022/06/29 12:08:00;;;;;;;4.22;1.27;;;;;;;;;;20923300;28;20516;-63
2022/06/29 12:18:02;;;;;;;2.05;1.20;;;31.50;22.20;;;;;;20924020;28;20060;-62
2022/06/29 12:28:04;;;;;;;2.78;1.38;;;;;;;;;;20921827;28;20088;-63
2022/06/29 12:38:08;;;;;;;5.88;1.58;;;31.60;21.50;;;;;;20921733;28;20410;-66
2022/06/29 12:48:09;;;;;;;3.50;1.65;;;32.60;20.50;;;;;;20920991;28;20134;-63
2022/06/29 12:58:11;;;;;;;2.25;1.00;;;32.20;20.90;;;;;;20919778;28;20049;-63
2022/06/29 13:08:15;;;;;;;3.47;1.52;;;31.60;21.20;;;;;;20918234;28;20444;-65
2022/06/29 13:18:18;;;;;;;4.05;1.67;;;31.70;21.10;;;;;;20919117;28;20049;-63
2022/06/29 13:28:20;;;;;;;3.38;1.30;;;31.70;21.30;;;;;;20918173;28;20412;-65
2022/06/29 13:38:21;;;;;;;4.65;1.63;;;31.70;21.80;;;;;;20917363;28;20052;-63
2022/06/29 13:48:23;;;;;;;3.13;2.00;;;32.30;21.40;;;;;;20915546;28;20118;-65
2022/06/29 13:58:26;;;;;;;4.00;1.75;;;32.10;21.60;;;;;;20914347;28;20064;-65
2022/06/29 14:08:28;;;;;;;2.38;1.45;;;32.00;21.80;;;;;;20913256;28;20084;-67
2022/06/29 14:18:29;;;;;;;3.85;1.30;;;31.70;21.70;;;;;;20913578;28;20053;-65
2022/06/29 14:28:31;;;;;;;3.10;1.20;;;31.90;21.90;;;;;;20912605;28;20218;-65
2022/06/29 14:38:33;;;;;;;2.47;1.30;;;31.90;21.60;;;;;;20912816;28;20049;-65
2022/06/29 14:48:35;;;;;;;3.75;1.77;;;31.90;21.30;;;;;;20910937;28;20049;-63
2022/06/29 14:58:37;;;;;;;8.95;1.80;;;32.00;20.60;;;;;;20912163;28;20068;-64
2022/06/29 15:08:39;;;;;;;5.35;1.42;;;32.00;21.00;;;;;;20911052;28;20405;-66
2022/06/29 15:18:43;;;;;;;3.65;1.20;;;32.00;21.20;;;;;;20917112;28;20386;-66
2022/06/29 15:28:44;;;;;;;5.73;1.83;;;32.00;21.40;;;;;;20928660;28;20084;-65
2022/06/29 15:38:46;;;;;;;2.95;1.10;;;32.10;21.30;;;;;;20928290;28;20091;-63
2022/06/29 15:48:48;;;;;;;3.33;1.27;;;32.00;20.90;;;;;;20926781;28;20131;-64
2022/06/29 15:58:49;;;;;;;4.15;1.25;;;31.80;21.10;;;;;;20926163;28;20041;-65
2022/06/29 16:08:52;;;;;;;4.43;1.17;;;31.80;21.40;;;;;;20925386;28;20060;-62
2022/06/29 16:18:54;;;;;;;4.43;1.10;;;31.80;20.70;;;;;;20923212;28;20435;-61
2022/06/29 16:28:57;;;;;;;6.38;1.05;;;31.80;21.00;;;;;;20921704;28;20080;-61
2022/06/29 16:38:58;;;;;;;2.45;0.95;;;31.80;21.10;;;;;;20935794;28;20131;-66
2022/06/29 16:49:01;;;;;;;3.17;0.80;;;31.90;20.90;;;;;;20913745;28;20067;-66
2022/06/29 16:59:03;;;;;;;2.00;1.20;;;31.90;20.80;;;;;;20926300;28;20041;-69
2022/06/29 17:09:06;;;;;;;3.42;0.98;;;;;;;;;;20922409;28;20055;-63
2022/06/29 17:19:08;;;;;;;1.88;1.00;;;31.60;20.70;;;;;;20919166;28;20060;-63
2022/06/29 17:29:10;;;;;;;1.80;0.98;;;31.40;20.40;;;;;;20917269;28;20170;-64
2022/06/29 17:39:13;;;;;;;2.15;0.57;;;31.20;20.40;;;;;;20918712;28;20098;-64
2022/06/29 17:49:15;;;;;;;3.55;0.90;;;31.10;20.10;;;;;;20919018;28;20114;-62
2022/06/29 17:59:19;;;;;;;3.13;0.70;;;31.90;19.60;;;;;;20916642;28;20452;-63
2022/06/29 18:09:21;;;;;;;1.15;0.68;;;;;;;;;;20915041;28;20504;-64
2022/06/29 18:19:24;;;;;;;2.92;0.88;;;;;;;;;;20915535;28;20053;-63
2022/06/29 18:29:26;;;;;;;1.85;1.20;;;;;;;;;;20901309;28;20057;-64
2022/06/29 18:39:28;;;;;;;2.00;1.00;;;;;;;;;;20905429;28;20485;-63
2022/06/29 18:49:30;;;;;;;3.58;1.10;;;31.20;19.90;;;;;;20902012;28;20056;-59
2022/06/29 18:59:32;;;;;;;0.80;0.70;;;;;;;;;;20891111;28;20045;-64
2022/06/29 19:09:34;;;;;;;2.00;0.70;;;30.90;21.10;;;;;;20861655;28;20092;-56
2022/06/29 19:19:35;;;;;;;3.08;1.08;;;29.70;21.90;;;;;;20884904;28;20088;-52
2022/06/29 19:29:37;;;;;;;6.03;1.85;;;29.30;22.40;;;;;;20910400;28;20051;-57
2022/06/29 19:39:39;;;;;;;4.95;1.38;;;29.20;22.70;;;;;;20911438;28;20045;-62
2022/06/29 19:49:41;;;;;;;1.65;0.75;;;29.00;23.00;;;;;;20920053;28;20045;-64
2022/06/29 19:59:43;;;;;;;1.77;0.82;;;28.80;23.50;;;;;;20910558;28;20052;-61
2022/06/29 20:09:44;;;;;;;2.60;1.33;;;28.70;23.70;;;;;;20920371;28;20053;-62
2022/06/29 20:19:46;;;;;;;3.63;1.05;;;28.50;24.10;;;;;;20923041;28;20081;-66
2022/06/29 20:29:48;;;;;;;4.00;1.13;;;28.20;24.60;;;;;;20922933;28;20048;-65
2022/06/29 20:39:50;;;;;;;3.80;1.27;;;28.10;25.00;;;;;;20921788;28;20057;-63
2022/06/29 20:49:52;;;;;;;7.82;4.15;;;28.00;25.10;;;;;;20920120;28;20429;-66
2022/06/29 20:59:53;;;;;;;3.10;1.90;;;27.70;25.50;;;;;;20920579;28;20053;-66
2022/06/29 21:09:55;;;;;;;5.97;1.13;;;27.60;25.60;;;;;;20919399;28;20059;-64
2022/06/29 21:19:57;;;;;;;3.40;2.10;;;27.40;25.80;;;;;;20917919;28;20182;-63
2022/06/29 21:29:59;;;;;;;3.88;1.13;;;27.30;26.20;;;;;;20917495;28;20048;-66
2022/06/29 21:40:03;;;;;;;3.50;0.80;;;27.10;27.00;;;;;;20917096;28;20040;-64
2022/06/29 22:00:27;;;;;;;2.33;0.68;;;26.70;29.30;;;;;;20915436;28;20049;-65
2022/06/29 22:10:28;;;;;;;2.53;0.80;;;27.50;30.10;;;;;;20914603;28;20049;-64
2022/06/29 22:20:31;;;;;;;2.05;0.88;;;26.60;30.80;;;;;;20914317;28;20052;-63
2022/06/29 22:30:34;;;;;;;1.40;0.80;;;26.30;31.60;;;;;;20912428;28;20088;-62
2022/06/29 22:40:35;;;;;;;1.38;0.57;;;26.10;32.10;;;;;;20915658;28;20052;-64
2022/06/29 22:50:37;;;;;;;1.90;0.52;;;26.00;32.50;;;;;;20912301;28;20512;-64
2022/06/29 23:00:39;;;;;;;1.42;0.70;;;25.80;32.80;;;;;;20911423;28;20140;-65
2022/06/29 23:21:01;;;;;;;3.63;1.90;;;25.50;33.20;;;;;;20910467;28;20048;-65
2022/06/29 23:31:03;;;;;;;7.13;4.30;;;25.30;33.70;;;;;;20910393;28;20064;-65
2022/06/29 23:41:05;;;;;;;2.05;1.45;;;;;;;;;;20918221;28;20382;-65
2022/06/29 23:51:06;;;;;;;4.80;3.15;;;26.00;32.90;;;;;;20926944;28;20108;-64
